Millville, Canada
Current Conditions -  °F | °C
As of 6:53 PM on Saturday 27 Dec 2014 (Local Time) from KHUL Reporting Station
Clear Clear  
Wind Chill: 30°   Ceiling: Unl
Heat Index: 34°   Visibility: 10mi
Dew Point: 23°   Wind: 5mph
Humidity: 64%   Direction: 250°WSW
Pressure: 30.02"   Gusts: NA
Location:  46.13°N, 67.18°W
Report Text: KHUL 272253Z AUTO 25004KT 10SM CLR 01/M05 A3002 RMK AO2 SLP171 T00111050
Loading
Personal Weather Stations






























Interactive Weather Map New forecast layout! Learn more

10-Day Weather Forecast

Advertisements
Track Severe Weather on mobile